Time;durP1;ratioP1;P1;durP2;ratioP2;P2;SDS_P1;SDS_P2;PMS_P1;PMS_P2;Temp;Humidity;BMP_temperature;BMP_pressure;BME280_temperature;BME280_humidity;BME280_pressure;Samples;Min_cycle;Max_cycle;Signal;HPM_P1;HPM_P2
2022/03/27 00:00:45;;;;;;;7.83;0.90;;;;;;;2.54;48.71;99632.97;1677815;85;21111;-69
2022/03/27 00:03:11;;;;;;;8.93;1.15;;;;;;;2.52;49.07;99632.12;1677589;85;21149;-68
2022/03/27 00:05:38;;;;;;;4.78;1.40;;;;;;;2.46;49.31;99626.99;1676882;84;21373;-70
2022/03/27 00:08:06;;;;;;;7.45;1.47;;;;;;;2.43;48.52;99630.94;1671041;85;21118;-69
2022/03/27 00:11:23;;;;;;;9.18;1.92;;;;;;;2.39;49.42;99634.00;1671072;85;21126;-69
2022/03/27 00:13:01;;;;;;;7.67;1.62;;;;;;;2.36;49.66;99631.45;1667172;85;21557;-69
2022/03/27 00:15:29;;;;;;;10.95;1.90;;;;;;;2.35;49.95;99634.05;1671071;85;21070;-69
2022/03/27 00:17:57;;;;;;;7.97;2.12;;;;;;;2.27;50.30;99629.80;1670958;85;21126;-69
2022/03/27 00:20:26;;;;;;;5.80;2.55;;;;;;;2.22;49.95;99640.70;1670963;85;21800;-70
2022/03/27 00:22:54;;;;;;;12.93;3.77;;;;;;;2.20;50.69;99633.35;1670852;85;21039;-69
2022/03/27 00:25:20;;;;;;;5.42;2.92;;;;;;;2.18;50.95;99647.23;1670684;85;21138;-69
2022/03/27 00:27:48;;;;;;;10.48;3.62;;;;;;;2.14;50.60;99646.43;1654118;86;21321;-69
2022/03/27 00:30:14;;;;;;;9.80;3.25;;;;;;;2.09;50.33;99646.89;1610658;89;21086;-68
2022/03/27 00:32:42;;;;;;;6.03;3.05;;;;;;;2.07;50.75;99655.13;1595116;89;21102;-69
2022/03/27 00:35:09;;;;;;;11.65;2.87;;;;;;;2.07;50.19;99654.72;1614541;87;21080;-70
2022/03/27 00:37:37;;;;;;;5.08;2.80;;;;;;;2.04;49.89;99649.53;1614585;88;21088;-69
2022/03/27 00:40:08;;;;;;;12.07;3.15;;;;;;;2.06;50.35;99654.72;1614560;88;21179;-68
2022/03/27 00:42:36;;;;;;;4.45;2.05;;;;;;;2.07;49.89;99652.53;1614524;88;21080;-70
2022/03/27 00:45:04;;;;;;;7.08;2.02;;;;;;;2.07;50.31;99656.44;1614601;88;21096;-69
2022/03/27 00:47:31;;;;;;;8.08;2.27;;;;;;;2.06;49.79;99663.81;1614687;88;21667;-70
2022/03/27 00:49:58;;;;;;;10.35;2.12;;;;;;;2.06;50.38;99674.20;1637853;85;21083;-69
2022/03/27 00:52:25;;;;;;;8.33;1.98;;;;;;;2.01;50.17;99672.95;1654356;86;21239;-70
2022/03/27 00:54:51;;;;;;;3.62;1.32;;;;;;;1.99;50.60;99679.04;1610715;89;21034;-68
2022/03/27 00:57:18;;;;;;;10.18;2.17;;;;;;;1.96;51.06;99685.57;1610631;89;21077;-69
2022/03/27 00:59:45;;;;;;;7.20;2.47;;;;;;;1.91;51.00;99676.52;1633106;87;21034;-69
2022/03/27 01:02:12;;;;;;;11.88;3.20;;;;;;;1.88;51.21;99683.02;1633196;87;21271;-70
2022/03/27 01:04:45;;;;;;;9.53;3.10;;;;;;;1.86;50.55;99688.25;1633033;86;21336;-69
2022/03/27 01:07:20;;;;;;;7.25;2.87;;;;;;;1.85;50.96;99689.11;1639375;87;22210;-69
2022/03/27 01:09:47;;;;;;;6.47;2.27;;;;;;;1.85;50.83;99689.11;1676378;85;21129;-70
2022/03/27 01:12:24;;;;;;;6.97;2.30;;;;;;;1.84;50.30;99689.11;1676111;85;21082;-70
2022/03/27 01:14:52;;;;;;;12.88;2.83;;;;;;;1.83;49.72;99696.05;1676268;85;21090;-68
2022/03/27 01:17:23;;;;;;;17.32;2.87;;;;;;;1.81;50.29;99695.19;1675968;85;21956;-69
2022/03/27 01:19:52;;;;;;;11.30;2.50;;;;;;;1.80;50.36;99699.98;1666705;86;21071;-68
2022/03/27 01:22:20;;;;;;;8.38;2.17;;;;;;;1.80;50.03;99699.98;1666806;86;21165;-69
2022/03/27 01:24:48;;;;;;;7.80;1.70;;;;;;;1.79;50.43;99689.15;1666857;86;21662;-69
2022/03/27 01:27:14;;;;;;;6.60;2.40;;;;;;;1.78;51.29;99716.00;1666739;86;21677;-70
2022/03/27 01:29:41;;;;;;;11.43;2.00;;;;;;;1.78;51.29;99716.00;1666992;86;21236;-68
2022/03/27 01:32:14;;;;;;;8.18;1.62;;;;;;;1.77;51.58;99709.09;1666735;86;21249;-69
2022/03/27 01:34:44;;;;;;;10.38;1.70;;;;;;;1.76;51.39;99720.34;1666678;86;21693;-68
2022/03/27 01:37:13;;;;;;;8.48;1.42;;;;;;;1.75;52.62;99718.63;1666844;84;21626;-69
2022/03/27 01:41:24;;;;;;;5.27;1.50;;;;;;;1.81;53.31;99733.28;1796698;79;23563;-69
2022/03/27 01:43:51;;;;;;;6.25;1.35;;;;;;;1.83;52.74;99744.52;1756453;81;21502;-70
2022/03/27 01:46:18;;;;;;;2.90;0.90;;;;;;;1.83;52.74;99744.52;1756581;81;21544;-70
2022/03/27 01:48:46;;;;;;;5.30;1.27;;;;;;;1.85;52.95;99748.83;1756365;81;21025;-69
2022/03/27 01:51:13;;;;;;;8.83;1.07;;;;;;;1.89;54.07;99753.12;1756824;81;21049;-69
2022/03/27 01:53:39;;;;;;;11.97;1.15;;;;;;;1.88;54.28;99764.37;1756537;81;21063;-69
2022/03/27 01:56:07;;;;;;;12.55;1.30;;;;;;;1.89;54.44;99758.33;1756225;81;21039;-69
2022/03/27 01:58:39;;;;;;;6.95;1.20;;;;;;;1.91;54.84;99760.03;1756336;81;21220;-70
2022/03/27 02:01:07;;;;;;;3.00;1.02;;;;;;;1.88;55.06;99756.59;1756089;81;21089;-69
2022/03/27 02:03:39;;;;;;;3.98;0.98;;;;;;;1.89;55.47;99763.52;1737654;81;21004;-69
2022/03/27 02:06:05;;;;;;;2.67;1.05;;;;;;;1.87;55.42;99761.81;1726429;83;21003;-69
2022/03/27 02:08:37;;;;;;;6.15;0.80;;;;;;;1.85;55.65;99756.62;1726345;82;21086;-69
2022/03/27 02:11:03;;;;;;;4.50;1.05;;;;;;;1.85;55.65;99756.62;1726019;82;21828;-69
2022/03/27 02:13:29;;;;;;;14.50;1.40;;;;;;;1.86;56.01;99780.84;1726542;83;20969;-69
2022/03/27 02:16:02;;;;;;;4.85;1.02;;;;;;;1.83;55.70;99775.23;1726134;83;21128;-70
2022/03/27 02:18:30;;;;;;;3.27;1.10;;;;;;;1.82;56.16;99774.83;1726189;82;21012;-68
2022/03/27 02:20:57;;;;;;;5.17;1.20;;;;;;;1.81;56.63;99780.87;1726203;83;21117;-69
2022/03/27 02:23:25;;;;;;;3.87;1.20;;;;;;;1.81;56.49;99775.69;1726404;82;22591;-69
2022/03/27 02:25:53;;;;;;;8.38;2.25;;;;;;;1.81;56.19;99779.58;1726052;82;21027;-69
2022/03/27 02:28:19;;;;;;;4.90;1.20;;;;;;;1.81;57.51;99812.03;1726547;82;21015;-71
2022/03/27 02:30:49;;;;;;;2.00;0.98;;;;;;;1.80;56.56;99799.94;1726260;82;21582;-70
2022/03/27 02:33:16;;;;;;;5.55;1.10;;;;;;;1.81;57.21;99799.05;1726275;82;21016;-69
2022/03/27 02:35:45;;;;;;;4.22;1.12;;;;;;;1.81;56.71;99801.65;1726359;82;21070;-70
2022/03/27 02:38:12;;;;;;;4.28;1.30;;;;;;;1.78;56.51;99799.53;1726307;83;21055;-68
2022/03/27 02:40:42;;;;;;;3.85;1.00;;;;;;;1.75;55.67;99817.29;1723274;82;22110;-69
2022/03/27 02:43:11;;;;;;;8.80;1.35;;;;;;;1.75;55.67;99817.29;1721463;83;21046;-69
2022/03/27 02:45:39;;;;;;;4.27;1.10;;;;;;;1.73;54.69;99813.83;1721667;82;21138;-69
2022/03/27 02:48:06;;;;;;;10.95;1.10;;;;;;;1.74;54.71;99812.95;1721265;82;22071;-68
2022/03/27 02:50:34;;;;;;;5.90;1.55;;;;;;;1.71;54.81;99814.72;1702404;82;21052;-71
2022/03/27 02:53:00;;;;;;;3.30;1.12;;;;;;;1.74;54.41;99818.58;1691988;84;21130;-70
2022/03/27 02:55:27;;;;;;;2.05;1.12;;;;;;;1.73;54.34;99829.86;1691905;84;21126;-70
2022/03/27 02:57:56;;;;;;;5.12;1.07;;;;;;;1.71;53.89;99840.23;1690967;83;21080;-69
2022/03/27 03:00:23;;;;;;;2.72;1.20;;;;;;;1.68;54.02;99836.38;1686535;85;21832;-68
2022/03/27 03:02:51;;;;;;;5.58;1.10;;;;;;;1.68;54.02;99836.38;1685900;84;21132;-69
2022/03/27 03:05:21;;;;;;;4.25;1.02;;;;;;;1.65;54.75;99846.75;1686074;85;21044;-69
2022/03/27 03:07:47;;;;;;;5.30;1.32;;;;;;;1.62;54.76;99846.78;1686035;85;21486;-69
2022/03/27 03:10:16;;;;;;;3.80;1.02;;;;;;;1.62;54.76;99846.78;1686084;85;21064;-69
2022/03/27 03:12:44;;;;;;;3.33;1.77;;;;;;;1.62;54.22;99851.52;1686145;85;21132;-68
2022/03/27 03:15:12;;;;;;;3.98;1.20;;;;;;;1.58;54.43;99861.48;1686018;85;21061;-69
2022/03/27 03:17:39;;;;;;;4.70;1.35;;;;;;;1.58;54.43;99861.48;1685956;85;21063;-69
2022/03/27 03:20:10;;;;;;;3.02;1.20;;;;;;;1.58;54.57;99864.08;1685955;85;21064;-70
2022/03/27 03:22:40;;;;;;;4.70;1.30;;;;;;;1.55;54.35;99853.73;1686492;83;21057;-69
2022/03/27 03:25:08;;;;;;;7.83;1.50;;;;;;;1.54;53.77;99863.70;1685833;83;21140;-68
2022/03/27 03:27:36;;;;;;;3.60;1.22;;;;;;;1.54;54.44;99868.00;1686021;85;21041;-71
2022/03/27 03:30:06;;;;;;;9.13;1.05;;;;;;;1.53;54.31;99877.97;1685933;85;21025;-69
2022/03/27 03:32:34;;;;;;;4.10;0.93;;;;;;;1.52;54.03;99876.22;1686248;83;21044;-69
2022/03/27 03:35:04;;;;;;;6.20;1.02;;;;;;;1.51;54.02;99878.41;1686015;83;21079;-69
2022/03/27 03:37:31;;;;;;;4.25;1.20;;;;;;;1.50;54.09;99889.67;1686094;85;21740;-68
2022/03/27 03:39:59;;;;;;;2.70;1.25;;;;;;;1.50;54.33;99890.53;1690267;83;21097;-69
2022/03/27 03:42:26;;;;;;;3.90;1.00;;;;;;;1.50;55.07;99897.45;1714577;83;21067;-69
2022/03/27 03:44:53;;;;;;;1.92;1.20;;;;;;;1.50;55.07;99897.45;1714612;83;21108;-68
2022/03/27 03:47:20;;;;;;;2.55;1.02;;;;;;;1.49;55.00;99912.58;1714632;83;21036;-69
2022/03/27 03:49:47;;;;;;;2.22;1.17;;;;;;;1.51;55.66;99921.23;1716500;83;21226;-69
2022/03/27 03:52:13;;;;;;;3.15;1.40;;;;;;;1.46;56.04;99922.09;1720689;83;21051;-70
2022/03/27 03:54:40;;;;;;;2.52;1.15;;;;;;;1.43;56.49;99933.80;1720803;82;21086;-68
2022/03/27 03:57:06;;;;;;;3.62;1.20;;;;;;;1.39;57.70;99924.28;1722856;82;21044;-69
2022/03/27 03:59:33;;;;;;;3.08;1.37;;;;;;;1.33;59.32;99932.08;1724798;83;21039;-69
2022/03/27 04:02:00;;;;;;;4.15;0.98;;;;;;;1.29;59.56;99935.58;1724681;83;21097;-70
2022/03/27 04:04:28;;;;;;;3.45;1.30;;;;;;;1.24;60.51;99960.64;1724579;82;20968;-68
2022/03/27 04:06:54;;;;;;;5.62;1.12;;;;;;;1.19;61.16;99952.86;1724140;82;21083;-70
2022/03/27 04:09:21;;;;;;;1.95;1.20;;;;;;;1.14;61.85;99962.83;1720864;83;21023;-68
2022/03/27 04:11:48;;;;;;;3.72;1.10;;;;;;;1.14;61.85;99962.83;1721127;82;21043;-69
2022/03/27 04:14:15;;;;;;;3.50;1.22;;;;;;;1.12;62.10;99969.75;1720907;82;21134;-69
2022/03/27 04:16:43;;;;;;;1.60;1.10;;;;;;;1.09;62.68;99972.36;1720584;82;21047;-69
2022/03/27 04:19:09;;;;;;;2.58;1.30;;;;;;;1.04;63.11;99973.22;1720764;82;21020;-69
2022/03/27 04:21:36;;;;;;;2.25;1.40;;;;;;;1.00;63.68;99977.96;1720767;82;21087;-70
2022/03/27 04:24:06;;;;;;;4.12;1.32;;;;;;;0.99;64.41;99987.92;1716811;82;21044;-69
2022/03/27 04:26:34;;;;;;;4.37;1.42;;;;;;;0.93;66.38;99985.31;1714659;83;21142;-69
2022/03/27 04:29:00;;;;;;;4.45;1.20;;;;;;;0.93;66.38;99985.31;1714921;83;21034;-69
2022/03/27 04:31:28;;;;;;;5.12;1.72;;;;;;;0.86;68.66;100001.74;1714720;83;21057;-69
2022/03/27 04:33:56;;;;;;;5.70;1.60;;;;;;;0.77;70.76;99988.77;1714675;83;21092;-69
2022/03/27 04:36:23;;;;;;;1.67;1.00;;;;;;;0.68;71.78;99995.25;1714783;83;21001;-70
2022/03/27 04:38:49;;;;;;;3.37;0.95;;;;;;;0.62;71.92;99988.31;1714639;83;21602;-69
2022/03/27 04:41:18;;;;;;;2.77;1.20;;;;;;;0.59;70.06;99995.66;1714499;83;21053;-69
2022/03/27 04:43:47;;;;;;;4.78;1.30;;;;;;;0.59;69.24;100006.02;1714585;83;21100;-69
2022/03/27 04:46:17;;;;;;;2.27;1.10;;;;;;;0.60;68.60;100001.73;1714575;83;21029;-70
2022/03/27 04:48:45;;;;;;;3.10;1.02;;;;;;;0.60;68.09;100009.50;1714703;83;21639;-69
2022/03/27 04:51:12;;;;;;;2.20;1.20;;;;;;;0.62;67.18;100003.45;1688459;83;21208;-69
2022/03/27 04:53:38;;;;;;;3.85;1.10;;;;;;;0.63;67.36;100022.02;1720653;83;21035;-69
2022/03/27 04:56:05;;;;;;;2.70;1.17;;;;;;;0.66;66.92;100025.05;1720702;82;21011;-69
2022/03/27 04:58:32;;;;;;;3.25;1.10;;;;;;;0.71;67.07;100018.57;1720774;82;21114;-70
2022/03/27 05:00:58;;;;;;;3.05;1.02;;;;;;;0.77;66.07;100022.48;1720721;83;21061;-69
2022/03/27 05:03:25;;;;;;;1.77;1.27;;;;;;;0.82;65.48;100025.93;1685830;84;21120;-70
2022/03/27 05:05:53;;;;;;;3.35;1.32;;;;;;;0.87;64.47;100030.68;1720743;82;21046;-70
2022/03/27 05:08:21;;;;;;;2.37;1.60;;;;;;;0.90;63.55;100041.08;1685760;85;21014;-71
2022/03/27 05:10:49;;;;;;;5.15;2.10;;;;;;;1.02;62.48;100035.88;1685777;85;21021;-68
2022/03/27 05:13:17;;;;;;;4.42;1.85;;;;;;;1.02;62.48;100035.88;1721014;82;21056;-68
2022/03/27 05:15:45;;;;;;;2.72;2.00;;;;;;;1.16;62.10;100042.81;1685695;85;21310;-69
2022/03/27 05:18:12;;;;;;;3.37;1.75;;;;;;;1.29;60.99;100057.52;1720684;83;21073;-69
2022/03/27 05:20:42;;;;;;;4.30;1.35;;;;;;;1.36;60.75;100055.34;1685717;84;21025;-69
2022/03/27 05:23:08;;;;;;;2.10;1.20;;;;;;;1.46;60.76;100067.42;1720834;82;21101;-69
2022/03/27 05:25:45;;;;;;;2.27;0.98;;;;;;;1.46;60.76;100067.42;1720663;82;21548;-70
2022/03/27 05:28:14;;;;;;;3.22;1.02;;;;;;;1.41;59.71;100062.69;1720922;82;21057;-69
2022/03/27 05:30:43;;;;;;;1.37;0.82;;;;;;;1.41;59.71;100062.69;1720847;83;21498;-69
2022/03/27 05:33:09;;;;;;;2.70;1.17;;;;;;;1.40;59.91;100068.75;1685988;85;21103;-69
2022/03/27 05:35:36;;;;;;;1.10;0.80;;;;;;;1.44;60.02;100068.30;1685950;85;21037;-69
2022/03/27 05:38:04;;;;;;;4.12;0.90;;;;;;;1.51;59.37;100066.56;1720879;82;21526;-69
2022/03/27 05:40:31;;;;;;;2.30;0.80;;;;;;;1.84;59.56;100084.69;1719768;83;21348;-70
2022/03/27 05:42:58;;;;;;;3.67;0.88;;;;;;;1.84;59.56;100084.69;1712952;83;21042;-69
2022/03/27 05:45:25;;;;;;;1.00;0.82;;;;;;;2.09;58.32;100082.00;1713154;83;21101;-67
2022/03/27 05:47:54;;;;;;;1.42;0.93;;;;;;;2.13;56.85;100094.13;1678314;85;21060;-69
2022/03/27 05:50:22;;;;;;;3.60;1.20;;;;;;;2.05;56.29;100097.20;1712877;83;21111;-70
2022/03/27 05:52:52;;;;;;;1.30;0.90;;;;;;;1.93;56.91;100094.17;1712816;83;21246;-69
2022/03/27 05:55:22;;;;;;;2.40;1.05;;;;;;;1.89;57.32;100105.02;1713363;83;21523;-69
2022/03/27 05:57:51;;;;;;;4.42;1.00;;;;;;;1.85;57.27;100118.87;1712981;83;21095;-70
2022/03/27 06:00:24;;;;;;;0.80;0.80;;;;;;;1.80;57.52;100111.52;1712863;82;21507;-69
2022/03/27 06:02:51;;;;;;;2.13;1.13;;;;;;;1.72;58.18;100113.25;1712936;82;21124;-68
2022/03/27 06:05:23;;;;;;;3.45;1.07;;;;;;;1.67;57.79;100117.59;1713181;82;21605;-68
2022/03/27 06:07:54;;;;;;;3.20;1.07;;;;;;;1.60;59.00;100123.22;1713061;82;21109;-68
2022/03/27 06:10:25;;;;;;;5.50;0.90;;;;;;;1.57;59.35;100137.95;1678327;85;21033;-69
2022/03/27 06:12:52;;;;;;;;;;;;;;;1.52;61.96;100152.63;1680809;85;21048;-69
2022/03/27 06:15:20;;;;;;;1.52;0.93;;;;;;;1.34;65.14;100154.81;1666093;86;20175;-68
2022/03/27 06:17:50;;;;;;;6.70;0.90;;;;;;;1.17;67.16;100165.14;1665454;85;21131;-69
2022/03/27 06:20:22;;;;;;;4.60;1.02;;;;;;;0.91;66.73;100165.95;1665576;85;21133;-68
2022/03/27 06:22:48;;;;;;;1.00;0.82;;;;;;;0.91;66.73;100165.95;1665507;85;21062;-70
2022/03/27 06:25:19;;;;;;;2.30;0.90;;;;;;;0.73;63.79;100160.71;1665681;85;21733;-69
2022/03/27 06:27:46;;;;;;;1.10;0.85;;;;;;;0.60;62.19;100162.41;1665742;86;21082;-68
2022/03/27 06:30:18;;;;;;;2.50;0.82;;;;;;;0.52;59.48;100177.91;1665803;86;21258;-69
2022/03/27 06:32:45;;;;;;;1.20;0.80;;;;;;;0.52;59.48;100177.91;1657981;85;21054;-69
2022/03/27 06:35:14;;;;;;;1.02;0.70;;;;;;;0.53;58.33;100184.84;1713100;83;21034;-71
2022/03/27 06:37:41;;;;;;;1.15;0.75;;;;;;;0.55;58.73;100198.67;1678744;85;21049;-69
2022/03/27 06:40:09;;;;;;;1.20;0.80;;;;;;;0.59;58.04;100194.35;1713138;83;21110;-69
2022/03/27 06:42:37;;;;;;;3.00;0.72;;;;;;;0.60;57.84;100198.26;1684884;85;21206;-70
2022/03/27 06:45:06;;;;;;;2.60;0.88;;;;;;;0.60;59.59;100203.88;1720747;83;21030;-69
2022/03/27 06:47:33;;;;;;;1.82;1.00;;;;;;;0.58;59.49;100205.16;1685998;85;21092;-68
2022/03/27 06:50:02;;;;;;;1.47;0.88;;;;;;;0.62;60.57;100221.16;1720779;82;21043;-70
2022/03/27 06:52:29;;;;;;;2.72;0.82;;;;;;;0.68;60.06;100212.97;1721152;83;21046;-69
2022/03/27 06:54:55;;;;;;;2.22;1.10;;;;;;;1.34;56.58;100217.95;1720800;83;21329;-70
2022/03/27 06:57:22;;;;;;;6.08;1.07;;;;;;;2.13;52.16;100214.08;1720900;83;21043;-69
2022/03/27 07:05:22;;;;;;;0.98;0.68;;;;;;;4.35;43.57;100197.60;1720760;83;21012;-69
2022/03/27 07:07:49;;;;;;;4.53;0.80;;;;;;;5.34;40.34;100220.30;1720700;82;21134;-70
2022/03/27 07:10:19;;;;;;;5.17;0.70;;;;;;;6.07;37.78;100206.55;1720804;82;21650;-69
2022/03/27 07:12:48;;;;;;;1.12;0.90;;;;;;;6.70;36.45;100218.45;1720933;82;21059;-69
2022/03/27 07:15:14;;;;;;;0.93;0.50;;;;;;;7.32;34.83;100231.13;1720784;82;21051;-70
2022/03/27 07:17:49;;;;;;;1.00;0.57;;;;;;;7.94;33.40;100229.71;1720863;82;21582;-69
2022/03/27 07:20:26;;;;;;;1.00;0.53;;;;;;;8.27;30.36;100223.20;1721089;83;21790;-68
2022/03/27 07:22:55;;;;;;;1.72;0.60;;;;;;;8.00;32.21;100233.47;1720757;82;21558;-68
2022/03/27 07:25:22;;;;;;;4.62;0.50;;;;;;;7.71;31.41;100241.61;1720757;83;21008;-70
2022/03/27 07:27:50;;;;;;;0.78;0.70;;;;;;;7.07;30.15;100246.96;1720710;83;21048;-69
2022/03/27 07:30:17;;;;;;;0.62;0.40;;;;;;;6.32;31.53;100247.09;1721013;83;21090;-69
2022/03/27 07:32:45;;;;;;;4.10;0.60;;;;;;;5.68;31.77;100255.94;1720659;82;21044;-70
2022/03/27 07:35:14;;;;;;;0.50;0.50;;;;;;;5.33;32.05;100268.16;1720773;82;21023;-70
2022/03/27 07:37:43;;;;;;;1.77;0.80;;;;;;;5.14;32.59;100266.24;1720728;82;21109;-69
2022/03/27 07:40:11;;;;;;;1.95;0.60;;;;;;;4.93;32.95;100262.60;1720693;83;21046;-70
2022/03/27 07:42:40;;;;;;;3.55;1.00;;;;;;;4.62;33.57;100261.62;1715150;82;21066;-70
2022/03/27 07:45:09;;;;;;;1.32;0.80;;;;;;;4.39;34.64;100270.56;1713214;83;21257;-71
2022/03/27 07:47:36;;;;;;;1.10;0.80;;;;;;;4.13;35.45;100280.34;1712889;83;21098;-69
2022/03/27 07:50:06;;;;;;;2.92;0.80;;;;;;;3.94;37.26;100286.14;1713047;82;21101;-68
2022/03/27 07:52:35;;;;;;;2.70;0.65;;;;;;;3.71;37.02;100281.09;1678504;85;21022;-71
2022/03/27 07:55:01;;;;;;;1.80;0.70;;;;;;;3.90;36.97;100283.98;1713499;83;21018;-69
2022/03/27 07:57:28;;;;;;;0.60;0.60;;;;;;;4.39;36.02;100292.73;1678495;85;21291;-69
2022/03/27 07:59:55;;;;;;;1.10;0.72;;;;;;;5.07;35.43;100278.09;1713118;83;22078;-70
2022/03/27 08:02:22;;;;;;;1.27;0.80;;;;;;;5.43;34.40;100278.93;1702709;83;21018;-70
2022/03/27 08:04:49;;;;;;;1.02;0.80;;;;;;;5.59;35.31;100299.17;1712965;82;21128;-69
2022/03/27 08:07:17;;;;;;;1.40;0.72;;;;;;;5.52;34.70;100287.09;1678390;85;21572;-70
2022/03/27 08:09:43;;;;;;;0.80;0.65;;;;;;;5.18;34.17;100291.44;1713039;83;21500;-69
2022/03/27 08:12:11;;;;;;;1.05;0.70;;;;;;;4.97;33.27;100302.11;1678498;85;21053;-70
2022/03/27 08:14:39;;;;;;;1.37;0.62;;;;;;;4.80;34.16;100287.51;1678548;85;21037;-70
2022/03/27 08:17:08;;;;;;;0.78;0.60;;;;;;;4.76;34.49;100298.89;1678464;85;21037;-68
2022/03/27 08:19:35;;;;;;;1.32;0.82;;;;;;;4.49;35.14;100311.75;1713129;83;21057;-69
2022/03/27 08:22:04;;;;;;;1.02;0.70;;;;;;;4.20;36.27;100321.13;1712907;82;21078;-68
2022/03/27 08:24:33;;;;;;;1.37;0.70;;;;;;;3.90;37.46;100324.81;1678619;85;21053;-70
2022/03/27 08:27:03;;;;;;;1.87;1.05;;;;;;;3.60;38.59;100333.69;1713092;83;21071;-69
2022/03/27 08:29:33;;;;;;;2.12;0.78;;;;;;;3.37;39.44;100339.86;1713170;82;21033;-68
2022/03/27 08:32:02;;;;;;;2.40;0.80;;;;;;;3.57;40.19;100340.64;1678670;85;21057;-69
2022/03/27 08:34:32;;;;;;;1.72;0.70;;;;;;;3.74;40.89;100338.37;1707827;83;21213;-69
2022/03/27 08:37:01;;;;;;;5.25;0.70;;;;;;;4.51;39.29;100343.02;1706982;84;21380;-69
2022/03/27 08:39:27;;;;;;;2.47;0.60;;;;;;;5.04;36.69;100352.09;1706980;84;21049;-69
2022/03/27 08:41:56;;;;;;;0.80;0.72;;;;;;;5.69;36.48;100337.80;1708990;83;21057;-69
2022/03/27 08:44:26;;;;;;;3.47;1.10;;;;;;;6.11;34.87;100335.91;1714795;83;21053;-69
2022/03/27 08:46:56;;;;;;;1.05;0.82;;;;;;;6.13;33.98;100336.76;1714552;83;21247;-71
2022/03/27 08:49:48;;;;;;;1.70;0.90;;;;;;;5.77;33.87;100361.20;1714890;83;21085;-70
2022/03/27 08:52:24;;;;;;;1.47;0.80;;;;;;;5.37;35.13;100369.55;1712230;83;21009;-70
2022/03/27 08:55:06;;;;;;;1.12;0.70;;;;;;;4.78;35.54;100370.16;1713924;83;21549;-69
2022/03/27 08:58:00;;;;;;;4.53;0.60;;;;;;;4.28;35.77;100379.30;1709570;83;21045;-69
2022/03/27 09:00:30;;;;;;;0.90;0.60;;;;;;;3.93;36.79;100366.06;1694178;83;21965;-70
2022/03/27 09:03:01;;;;;;;2.97;0.60;;;;;;;4.29;37.41;100370.58;1714812;83;21045;-70
2022/03/27 09:05:29;;;;;;;5.15;0.90;;;;;;;5.00;35.88;100351.69;1714152;83;21671;-69
2022/03/27 09:07:57;;;;;;;2.65;0.70;;;;;;;5.43;33.73;100360.34;1714269;83;21044;-69
2022/03/27 09:10:24;;;;;;;1.05;0.62;;;;;;;5.72;32.25;100349.95;1714443;83;21084;-69
2022/03/27 09:12:53;;;;;;;2.45;0.75;;;;;;;5.47;31.69;100369.84;1686133;83;21225;-69
2022/03/27 09:15:20;;;;;;;2.12;0.60;;;;;;;5.15;32.23;100372.39;1714329;83;21022;-68
2022/03/27 09:18:08;;;;;;;1.90;0.80;;;;;;;4.99;33.22;100358.66;1714468;83;21541;-69
2022/03/27 09:20:45;;;;;;;1.75;0.53;;;;;;;5.01;33.20;100342.52;1714424;83;21526;-69
2022/03/27 09:23:27;;;;;;;2.22;0.70;;;;;;;4.86;33.37;100358.36;1714410;83;21053;-69
2022/03/27 09:26:05;;;;;;;3.02;0.72;;;;;;;4.54;33.83;100353.45;1714397;83;21261;-70
2022/03/27 09:28:42;;;;;;;4.12;0.70;;;;;;;4.28;34.16;100349.72;1714404;83;21053;-69
2022/03/27 09:31:25;;;;;;;2.65;0.90;;;;;;;4.06;35.98;100372.49;1717167;83;21065;-70
2022/03/27 09:34:03;;;;;;;1.57;1.00;;;;;;;3.98;35.70;100359.52;1720379;82;21557;-70
2022/03/27 09:36:37;;;;;;;4.17;0.70;;;;;;;4.24;36.19;100347.59;1658587;85;21034;-70
2022/03/27 09:39:13;;;;;;;0.95;0.72;;;;;;;4.84;35.38;100360.97;1686000;85;21867;-70
2022/03/27 09:41:51;;;;;;;3.90;1.25;;;;;;;5.42;33.36;100375.58;1685411;85;21064;-69
2022/03/27 09:44:22;;;;;;;5.40;0.82;;;;;;;5.55;33.00;100386.31;1678509;85;21037;-70
2022/03/27 09:47:04;;;;;;;4.55;0.70;;;;;;;5.58;33.04;100369.28;1678748;85;21494;-70
2022/03/27 09:49:40;;;;;;;2.22;1.00;;;;;;;5.49;33.44;100365.92;1677295;85;21074;-70
2022/03/27 09:52:20;;;;;;;3.90;0.72;;;;;;;5.32;33.49;100347.86;1678107;85;21285;-69
2022/03/27 09:54:59;;;;;;;;;;;;;;;5.21;34.34;100373.64;1680978;85;21057;-69
2022/03/27 09:57:32;;;;;;;2.35;0.95;;;;;;;5.24;34.27;100354.04;1678262;85;20219;-69
2022/03/27 10:00:18;;;;;;;2.72;1.67;;;;;;;5.29;35.01;100373.98;1678453;85;21120;-70
2022/03/27 10:02:51;;;;;;;2.70;0.78;;;;;;;5.40;34.97;100374.73;1678293;85;21056;-69
2022/03/27 10:05:19;;;;;;;3.62;0.95;;;;;;;5.32;35.31;100368.75;1678423;85;21263;-69
2022/03/27 10:07:54;;;;;;;1.77;0.70;;;;;;;5.00;36.03;100389.54;1678411;85;21056;-70
2022/03/27 10:10:24;;;;;;;2.58;1.37;;;;;;;4.57;36.11;100386.02;1678653;85;21120;-70
2022/03/27 10:12:55;;;;;;;3.55;0.80;;;;;;;4.52;36.44;100346.06;1678333;85;21057;-69
2022/03/27 10:15:24;;;;;;;2.35;0.98;;;;;;;4.69;36.35;100370.24;1677795;85;21599;-69
2022/03/27 10:18:06;;;;;;;4.00;0.90;;;;;;;4.99;36.94;100391.70;1678247;85;21233;-70
2022/03/27 10:20:38;;;;;;;6.55;0.95;;;;;;;5.47;35.28;100378.99;1678380;85;21121;-70
2022/03/27 10:23:09;;;;;;;2.00;0.95;;;;;;;5.73;34.69;100385.22;1678206;85;21596;-70
2022/03/27 10:25:45;;;;;;;2.40;0.90;;;;;;;5.79;33.83;100382.95;1677336;85;21116;-69
2022/03/27 10:28:12;;;;;;;1.77;1.10;;;;;;;5.90;33.73;100378.45;1650689;85;21085;-69
2022/03/27 10:30:38;;;;;;;1.22;0.82;;;;;;;6.12;33.49;100389.51;1678400;85;21357;-71
2022/03/27 11:51:36;;;;;;;2.12;0.70;;;;;;;7.39;26.47;100386.45;1808514;78;28793;-71
2022/03/27 11:54:03;;;;;;;3.90;0.70;;;;;;;7.39;26.38;100394.77;1775750;80;21064;-69
2022/03/27 11:56:31;;;;;;;2.25;0.80;;;;;;;7.14;25.92;100403.08;1698206;81;21204;-70
2022/03/27 11:59:06;;;;;;;2.60;0.88;;;;;;;7.08;26.34;100359.97;1739303;81;21028;-72
2022/03/27 12:01:32;;;;;;;2.47;0.45;;;;;;;7.19;25.49;100372.87;1732402;81;20966;-70
2022/03/27 12:04:00;;;;;;;2.67;0.68;;;;;;;7.40;25.11;100374.20;1694326;83;21065;-70
2022/03/27 12:06:29;;;;;;;1.85;0.78;;;;;;;7.58;24.50;100381.69;1729822;81;21096;-70
2022/03/27 12:08:58;;;;;;;7.65;1.10;;;;;;;7.71;23.76;100361.34;1740555;81;21028;-70
2022/03/27 12:11:26;;;;;;;1.15;0.70;;;;;;;7.85;24.45;100384.64;1740777;82;21100;-69
2022/03/27 12:13:56;;;;;;;5.80;0.78;;;;;;;8.01;24.69;100386.02;1742138;81;21029;-70
2022/03/27 12:16:27;;;;;;;0.82;0.57;;;;;;;8.19;24.84;100388.23;1730840;81;21112;-70
2022/03/27 12:18:58;;;;;;;1.57;0.80;;;;;;;8.29;25.93;100389.32;1706603;84;21164;-70
2022/03/27 12:21:25;;;;;;;0.97;0.70;;;;;;;8.45;25.58;100385.47;1743085;82;21156;-69
2022/03/27 12:23:55;;;;;;;1.35;0.55;;;;;;;8.54;24.61;100385.70;1742669;81;21242;-69
2022/03/27 12:29:40;;;;;;;4.70;1.32;;;;;;;8.87;24.13;100396.24;1734933;81;21029;-69
2022/03/27 12:32:13;;;;;;;6.17;0.80;;;;;;;8.74;23.40;100394.36;1732877;81;21604;-69
2022/03/27 12:34:44;;;;;;;2.12;0.60;;;;;;;8.58;23.33;100384.70;1738564;81;21261;-71
2022/03/27 12:37:18;;;;;;;2.35;0.72;;;;;;;8.53;24.10;100394.45;1717581;82;21092;-70
2022/03/27 12:39:55;;;;;;;2.75;0.80;;;;;;;8.52;25.03;100397.53;1730660;81;21163;-69
2022/03/27 12:42:43;;;;;;;3.22;1.60;;;;;;;8.30;25.22;100404.16;1727398;81;21120;-70
2022/03/27 12:45:29;;;;;;;4.15;1.10;;;;;;;8.03;25.54;100410.45;1737024;81;21768;-69
2022/03/27 12:48:03;;;;;;;3.12;0.60;;;;;;;7.62;25.48;100420.05;1727975;81;21232;-70
2022/03/27 12:50:39;;;;;;;2.77;0.85;;;;;;;7.23;25.76;100419.94;1733541;81;21065;-71
2022/03/27 12:53:14;;;;;;;1.27;0.68;;;;;;;7.04;26.51;100411.56;1741258;81;21512;-69
2022/03/27 12:56:06;;;;;;;3.02;1.05;;;;;;;7.01;26.83;100405.05;1737927;81;21096;-69
2022/03/27 12:58:37;;;;;;;4.50;0.75;;;;;;;6.99;27.38;100420.37;1734775;81;22092;-70
2022/03/27 13:01:19;;;;;;;6.10;0.80;;;;;;;6.83;27.62;100425.00;1756413;80;21156;-69
2022/03/27 13:04:13;;;;;;;2.67;0.75;;;;;;;6.61;28.16;100427.13;1773406;80;20994;-71
2022/03/27 13:06:48;;;;;;;2.87;0.80;;;;;;;6.48;28.20;100432.53;1755856;80;21486;-70
2022/03/27 13:09:22;;;;;;;2.80;1.05;;;;;;;6.59;28.20;100414.51;1765913;80;21559;-69
2022/03/27 13:11:51;;;;;;;4.22;1.10;;;;;;;6.73;28.33;100390.27;1762782;80;21069;-70
2022/03/27 13:14:17;;;;;;;4.58;0.90;;;;;;;6.78;28.81;100411.99;1740802;81;21229;-69
2022/03/27 13:16:49;;;;;;;5.58;1.20;;;;;;;6.77;28.79;100415.52;1770636;80;21010;-70